Time;durP1;ratioP1;P1;durP2;ratioP2;P2;SDS_P1;SDS_P2;PMS_P1;PMS_P2;Temp;Humidity;BMP_temperature;BMP_pressure;BME280_temperature;BME280_humidity;BME280_pressure;Samples;Min_cycle;Max_cycle;Signal;HPM_P1;HPM_P2
2022/04/13 00:00:42;;;;;;;65.60;33.60;;;;;;;0.57;67.24;100463.45;214274;1277;140029;-64
2022/04/13 00:05:45;;;;;;;62.10;35.70;;;;;;;0.62;67.39;100466.55;212976;1276;141123;-63
2022/04/13 00:10:47;;;;;;;57.40;34.20;;;;;;;0.65;67.43;100460.12;213574;1277;140495;-62
2022/04/13 00:15:50;;;;;;;56.30;32.80;;;;;;;0.55;67.41;100454.35;213073;1277;140521;-64
2022/04/13 00:20:53;;;;;;;53.70;30.80;;;;;;;0.48;67.77;100453.45;213835;1277;140213;-64
2022/04/13 00:25:57;;;;;;;57.50;28.00;;;;;;;0.47;67.96;100462.88;213014;1277;139966;-65
2022/04/13 00:31:00;;;;;;;47.30;26.40;;;;;;;0.44;68.16;100466.95;213507;1277;139570;-63
2022/04/13 00:36:03;;;;;;;42.70;23.50;;;;;;;0.37;67.94;100468.88;212982;1277;140079;-64
2022/04/13 00:41:05;;;;;;;40.60;24.30;;;;;;;0.24;68.15;100473.34;212971;1275;162953;-63
2022/04/13 00:46:09;;;;;;;47.70;25.90;;;;;;;0.16;68.10;100474.84;214151;1277;141220;-64
2022/04/13 00:51:12;;;;;;;41.60;25.50;;;;;;;0.14;68.77;100475.51;214655;1277;251669;-66
2022/04/13 00:56:16;;;;;;;42.00;22.60;;;;;;;0.12;68.71;100475.35;214473;1277;141067;-64
2022/04/13 01:01:21;;;;;;;45.10;25.50;;;;;;;0.05;68.62;100473.48;213068;1276;141112;-63
2022/04/13 01:06:24;;;;;;;45.50;27.60;;;;;;;-0.02;69.12;100480.76;215099;1277;140164;-65
2022/04/13 01:11:27;;;;;;;51.10;25.10;;;;;;;-0.02;69.31;100485.35;213869;1276;140133;-63
2022/04/13 01:16:30;;;;;;;49.60;28.50;;;;;;;-0.01;69.32;100488.48;213169;1278;140535;-64
2022/04/13 01:21:52;;;;;;;56.30;29.70;;;;;;;0.00;69.14;100492.27;214916;1277;141116;-65
2022/04/13 01:26:55;;;;;;;52.90;30.50;;;;;;;-0.03;69.15;100492.00;214885;1278;140369;-66
2022/04/13 01:31:58;;;;;;;74.40;39.20;;;;;;;-0.01;69.17;100495.16;215634;1278;140458;-66
2022/04/13 01:37:00;;;;;;;95.60;44.50;;;;;;;0.01;69.29;100500.38;215654;1277;143409;-66
2022/04/13 01:42:06;;;;;;;70.50;38.40;;;;;;;-0.04;69.04;100502.91;213325;1277;139951;-62
2022/04/13 01:47:12;;;;;;;64.50;32.00;;;;;;;-0.15;69.14;100497.05;215412;1278;139868;-65
2022/04/13 01:52:14;;;;;;;55.30;26.20;;;;;;;-0.30;69.35;100480.90;215503;1276;141347;-66
2022/04/13 01:57:19;;;;;;;49.10;28.80;;;;;;;-0.37;69.69;100475.79;215104;1276;140657;-63
2022/04/13 02:02:22;;;;;;;53.50;29.40;;;;;;;-0.38;69.61;100480.79;213259;1278;141952;-63
2022/04/13 02:07:25;;;;;;;49.30;27.40;;;;;;;-0.34;69.85;100481.60;214388;1277;142078;-62
2022/04/13 02:12:28;;;;;;;38.40;22.00;;;;;;;-0.32;69.74;100485.08;213339;1276;142331;-62
2022/04/13 02:17:31;;;;;;;45.20;26.20;;;;;;;-0.42;69.84;100485.48;212989;1276;142592;-61
2022/04/13 02:22:34;;;;;;;47.30;27.50;;;;;;;-0.50;70.15;100488.00;212756;1278;142497;-61
2022/04/13 02:27:52;;;;;;;44.90;26.20;;;;;;;-0.54;70.12;100489.42;213971;1277;140311;-62
2022/04/13 02:32:55;;;;;;;42.90;26.50;;;;;;;-0.61;70.24;100491.20;213260;1278;143648;-62
2022/04/13 02:37:58;;;;;;;45.90;25.80;;;;;;;-0.64;70.50;100495.27;213776;1278;141063;-62
2022/04/13 02:43:00;;;;;;;36.60;24.50;;;;;;;-0.61;70.52;100498.80;213732;1277;142694;-62
2022/04/13 02:48:04;;;;;;;42.20;25.10;;;;;;;-0.62;70.53;100494.07;212819;1277;140960;-63
2022/04/13 02:53:06;;;;;;;43.30;26.30;;;;;;;-0.60;70.73;100492.64;213559;1278;140719;-62
2022/04/13 02:58:09;;;;;;;42.80;25.80;;;;;;;-0.51;71.03;100493.52;213503;1278;141058;-63
2022/04/13 03:03:11;;;;;;;34.50;21.90;;;;;;;-0.51;70.97;100485.11;213770;1278;139535;-63
2022/04/13 03:08:14;;;;;;;38.10;20.90;;;;;;;-0.59;70.96;100482.71;214708;1277;140199;-65
2022/04/13 03:13:17;;;;;;;43.40;25.20;;;;;;;-0.58;71.10;100480.76;213994;1278;143345;-64
2022/04/13 03:18:19;;;;;;;32.50;19.60;;;;;;;-0.61;70.99;100480.70;213557;1278;141189;-63
2022/04/13 03:23:23;;;;;;;33.10;21.10;;;;;;;-0.57;71.03;100480.48;212607;1278;141843;-63
2022/04/13 03:28:25;;;;;;;35.10;19.70;;;;;;;-0.50;71.19;100477.88;213908;1278;142662;-63
2022/04/13 03:33:30;;;;;;;35.00;19.80;;;;;;;-0.43;71.18;100478.05;215599;1277;141272;-64
2022/04/13 03:38:34;;;;;;;51.50;24.30;;;;;;;-0.40;71.15;100484.57;212609;1278;141152;-64
2022/04/13 03:43:38;;;;;;;66.00;28.90;;;;;;;-0.30;71.19;100491.57;215773;1278;141672;-68
2022/04/13 03:48:41;;;;;;;80.90;32.40;;;;;;;-0.25;71.28;100494.48;213098;1279;142379;-64
2022/04/13 03:53:48;;;;;;;70.50;32.20;;;;;;;-0.16;71.30;100496.62;213154;1277;141975;-62
2022/04/13 03:58:51;;;;;;;34.10;19.30;;;;;;;-0.10;71.14;100493.23;214455;1278;141885;-63
2022/04/13 04:03:54;;;;;;;34.60;18.90;;;;;;;-0.01;71.04;100492.23;214988;1278;140878;-63
2022/04/13 04:08:59;;;;;;;25.50;19.10;;;;;;;0.13;71.09;100496.40;212535;1277;141062;-63
2022/04/13 04:14:02;;;;;;;26.00;17.00;;;;;;;0.24;70.84;100499.40;213974;1278;142058;-62
2022/04/13 04:19:05;;;;;;;36.50;18.90;;;;;;;0.28;70.88;100504.36;213083;1278;141311;-65
2022/04/13 04:24:08;;;;;;;35.80;18.10;;;;;;;0.31;70.81;100507.05;212775;1278;141024;-66
2022/04/13 04:29:10;;;;;;;31.20;19.00;;;;;;;0.40;71.00;100509.17;213670;1277;141409;-64
2022/04/13 04:34:12;;;;;;;27.60;16.90;;;;;;;0.56;71.11;100517.21;213692;1278;141263;-64
2022/04/13 04:39:15;;;;;;;31.50;16.90;;;;;;;0.76;70.90;100517.67;213909;1276;140498;-62
2022/04/13 04:44:18;;;;;;;32.20;19.40;;;;;;;0.89;70.94;100518.99;212675;1279;140401;-62
2022/04/13 04:49:21;;;;;;;24.50;17.30;;;;;;;1.06;71.05;100521.89;212664;1277;142922;-63
2022/04/13 04:54:27;;;;;;;25.70;14.80;;;;;;;1.25;70.82;100521.64;213146;1278;142536;-63
2022/04/13 04:59:30;;;;;;;26.60;15.50;;;;;;;1.46;70.69;100524.95;212601;1277;141639;-62
2022/04/13 05:04:32;;;;;;;22.10;15.50;;;;;;;1.71;70.33;100518.43;213605;1279;141306;-63
2022/04/13 05:09:35;;;;;;;31.80;15.90;;;;;;;2.00;70.37;100524.67;212650;1277;141289;-64
2022/04/13 05:14:38;;;;;;;32.90;17.60;;;;;;;2.29;70.11;100524.61;214100;1277;141297;-64
2022/04/13 05:19:40;;;;;;;40.40;18.00;;;;;;;2.56;69.70;100525.33;214299;1279;140541;-64
2022/04/13 05:24:43;;;;;;;17.70;10.30;;;;;;;2.80;69.35;100524.44;214294;1278;140989;-64
2022/04/13 05:29:45;;;;;;;21.40;13.40;;;;;;;3.06;69.15;100524.79;213166;1277;141100;-62
2022/04/13 05:34:48;;;;;;;18.40;13.10;;;;;;;3.34;68.85;100524.96;212633;1277;142032;-63
2022/04/13 05:39:50;;;;;;;22.50;12.10;;;;;;;3.60;68.74;100526.83;214667;1277;141160;-65
2022/04/13 05:44:52;;;;;;;19.60;13.60;;;;;;;3.89;68.13;100534.16;215477;1277;141013;-67
2022/04/13 05:49:55;;;;;;;20.00;13.10;;;;;;;4.19;67.61;100537.48;215411;1277;140975;-67
2022/04/13 05:54:57;;;;;;;19.40;13.70;;;;;;;4.47;67.26;100535.48;215535;1278;139929;-67
2022/04/13 06:00:00;;;;;;;16.80;12.40;;;;;;;4.78;67.10;100536.23;215300;1277;141985;-64
2022/04/13 06:05:04;;;;;;;14.50;9.80;;;;;;;5.12;66.51;100539.70;214728;1277;140719;-64
2022/04/13 06:10:07;;;;;;;13.50;10.50;;;;;;;5.43;65.96;100544.85;213969;1277;140254;-63
2022/04/13 06:15:12;;;;;;;12.30;8.90;;;;;;;5.69;65.36;100546.61;215309;1277;139788;-65
2022/04/13 06:20:16;;;;;;;17.10;11.10;;;;;;;5.96;64.97;100551.69;214082;1277;140117;-64
2022/04/13 06:25:22;;;;;;;14.80;10.00;;;;;;;6.25;64.46;100552.73;214851;1278;140535;-64
2022/04/13 06:30:26;;;;;;;12.50;9.60;;;;;;;6.56;63.77;100557.23;215235;1277;139471;-63
2022/04/13 06:35:32;;;;;;;15.80;10.20;;;;;;;6.85;62.64;100561.28;213077;1277;140500;-63
2022/04/13 06:40:35;;;;;;;17.90;10.40;;;;;;;7.13;62.02;100567.57;213411;1277;141057;-65
2022/04/13 06:45:39;;;;;;;17.00;9.30;;;;;;;7.44;61.25;100567.05;213400;1277;139499;-65
2022/04/13 06:50:42;;;;;;;17.50;9.10;;;;;;;7.91;61.00;100571.61;212651;1277;141296;-67
2022/04/13 06:55:47;;;;;;;10.90;8.30;;;;;;;8.52;59.76;100572.23;212935;1277;140166;-70
2022/04/13 07:00:51;;;;;;;13.70;9.30;;;;;;;9.12;58.43;100572.23;213582;1277;142119;-67
2022/04/13 07:05:54;;;;;;;14.40;9.20;;;;;;;9.47;57.73;100577.45;213898;1277;139822;-65
2022/04/13 07:10:58;;;;;;;17.80;9.70;;;;;;;9.66;56.95;100575.15;212739;1279;140080;-69
2022/04/13 07:16:01;;;;;;;17.00;9.20;;;;;;;10.27;56.45;100569.58;213622;1277;140973;-65
2022/04/13 07:21:05;;;;;;;11.20;7.70;;;;;;;11.60;56.08;100572.34;213220;1277;141201;-64
2022/04/13 07:26:07;;;;;;;12.80;9.30;;;;;;;12.77;54.28;100572.23;214116;1277;141685;-66
2022/04/13 07:31:11;;;;;;;15.50;9.30;;;;;;;13.38;53.48;100577.38;214135;1278;140451;-66
2022/04/13 07:36:14;;;;;;;12.70;8.70;;;;;;;13.87;51.24;100576.08;213203;1278;140174;-67
2022/04/13 07:41:17;;;;;;;8.60;7.00;;;;;;;14.10;50.63;100574.25;215115;1277;140460;-67
2022/04/13 07:46:19;;;;;;;13.90;8.80;;;;;;;14.47;49.88;100573.59;215915;1276;141785;-70
2022/04/13 07:51:26;;;;;;;10.00;7.00;;;;;;;14.63;48.80;100578.99;215746;1277;140704;-67
2022/04/13 07:56:33;;;;;;;12.50;6.20;;;;;;;14.76;47.76;100574.62;213835;1276;141796;-68
2022/04/13 08:01:36;;;;;;;12.70;7.10;;;;;;;14.92;47.56;100576.61;213731;1277;140901;-68
2022/04/13 08:06:39;;;;;;;8.80;7.20;;;;;;;14.99;46.17;100580.06;213110;1277;141765;-68
2022/04/13 08:11:41;;;;;;;8.10;6.00;;;;;;;14.84;45.96;100576.16;214025;1277;139615;-72
2022/04/13 08:16:44;;;;;;;6.60;6.00;;;;;;;15.10;45.90;100583.89;214595;1277;139971;-68
2022/04/13 08:21:50;;;;;;;6.10;5.50;;;;;;;15.33;45.49;100583.34;214132;1277;140560;-70
2022/04/13 08:26:53;;;;;;;9.20;5.10;;;;;;;15.51;45.04;100586.37;214173;1277;139835;-71
2022/04/13 08:31:56;;;;;;;5.60;5.20;;;;;;;15.51;43.69;100589.87;213312;1277;139682;-71
2022/04/13 08:37:00;;;;;;;7.90;6.30;;;;;;;15.45;43.64;100583.20;213763;1280;142557;-68
2022/04/13 08:42:14;;;;;;;7.10;6.30;;;;;;;15.54;43.70;100580.79;214051;1277;139819;-71
2022/04/13 08:47:23;;;;;;;8.00;4.50;;;;;;;15.56;42.67;100582.80;213550;1277;150816;-68
2022/04/13 08:52:31;;;;;;;7.10;5.30;;;;;;;15.58;42.40;100581.60;213921;1277;140063;-67
2022/04/13 08:57:47;;;;;;;4.70;4.20;;;;;;;15.46;41.61;100574.31;213255;1277;140489;-69
2022/04/13 09:03:04;;;;;;;6.40;4.70;;;;;;;15.39;41.36;100568.88;213579;1277;139533;-68
2022/04/13 09:08:29;;;;;;;5.20;3.90;;;;;;;15.42;41.17;100563.87;213607;1277;141045;-68
2022/04/13 09:13:32;;;;;;;7.60;5.40;;;;;;;15.47;41.22;100560.23;213794;1277;141563;-69
2022/04/13 09:18:36;;;;;;;7.10;6.10;;;;;;;15.39;40.17;100559.80;213992;1278;140686;-69
2022/04/13 09:23:39;;;;;;;10.40;6.20;;;;;;;15.38;40.66;100564.28;213080;1277;140357;-69
2022/04/13 09:28:41;;;;;;;7.90;7.10;;;;;;;15.52;40.43;100555.70;214804;1277;140900;-71
2022/04/13 09:33:43;;;;;;;10.90;6.60;;;;;;;15.51;40.22;100556.48;213173;1277;140617;-72
2022/04/13 09:38:52;;;;;;;5.80;5.30;;;;;;;15.63;40.29;100560.70;213519;1277;139635;-68
2022/04/13 09:43:55;;;;;;;9.10;6.40;;;;;;;15.86;40.45;100557.41;215189;1277;140057;-67
2022/04/13 09:49:21;;;;;;;7.50;5.30;;;;;;;16.02;39.91;100549.48;215682;1277;139681;-76
2022/04/13 09:54:24;;;;;;;6.40;5.80;;;;;;;16.26;40.08;100535.67;213061;1277;139765;-76
2022/04/13 09:59:28;;;;;;;7.70;6.20;;;;;;;16.29;38.55;100518.91;213324;1277;140549;-76
2022/04/13 10:04:32;;;;;;;10.00;7.30;;;;;;;16.23;38.42;100512.34;214393;1277;139959;-72
2022/04/13 10:09:34;;;;;;;6.30;5.70;;;;;;;16.55;38.88;100508.21;213388;1277;140444;-70
2022/04/13 10:14:38;;;;;;;8.60;6.00;;;;;;;16.74;38.11;100516.85;213614;1277;141780;-67
2022/04/13 10:19:51;;;;;;;8.90;7.00;;;;;;;16.62;37.34;100521.19;212952;1277;139455;-73
2022/04/13 10:24:54;;;;;;;6.50;5.70;;;;;;;16.45;37.19;100516.89;213635;1277;160598;-76
2022/04/13 10:30:06;;;;;;;7.90;6.30;;;;;;;16.23;36.83;100519.98;212935;1277;139252;-72
2022/04/13 10:35:09;;;;;;;6.50;5.20;;;;;;;16.09;37.17;100517.52;213747;1277;140294;-72
2022/04/13 10:40:15;;;;;;;6.30;5.50;;;;;;;15.90;36.68;100520.46;213015;1277;140664;-74
2022/04/13 10:45:18;;;;;;;8.00;6.40;;;;;;;15.73;36.69;100518.16;213567;1277;141431;-75
2022/04/13 10:50:31;;;;;;;6.40;5.30;;;;;;;15.79;37.09;100517.59;212846;1277;578570;-74
2022/04/13 10:55:35;;;;;;;7.60;6.50;;;;;;;15.89;36.64;100515.33;213700;1278;141586;-74
2022/04/13 11:00:44;;;;;;;7.70;6.50;;;;;;;15.81;36.90;100511.39;214023;1277;140553;-71
2022/04/13 11:05:48;;;;;;;6.40;5.70;;;;;;;15.92;36.55;100515.21;212914;1277;142003;-74
2022/04/13 11:10:51;;;;;;;6.50;5.80;;;;;;;15.64;35.83;100518.52;212933;1278;140532;-71
2022/04/13 11:15:54;;;;;;;10.50;7.40;;;;;;;15.65;36.33;100507.14;213054;1278;141258;-74
2022/04/13 11:21:05;;;;;;;6.10;5.10;;;;;;;15.58;36.40;100499.91;213679;1277;142768;-77
2022/04/13 11:26:08;;;;;;;9.10;6.50;;;;;;;15.62;36.30;100500.48;213300;1278;141596;-72
2022/04/13 11:31:12;;;;;;;9.80;6.20;;;;;;;15.68;36.69;100504.05;212896;1277;164189;-72
2022/04/13 11:36:15;;;;;;;6.80;6.00;;;;;;;15.89;36.73;100500.83;215038;1276;140498;-76
2022/04/13 11:41:50;;;;;;;6.90;6.10;;;;;;;15.95;35.79;100486.44;213219;1277;141536;-75
2022/04/13 11:47:13;;;;;;;6.90;6.20;;;;;;;15.72;35.97;100481.60;212533;1279;141585;-76
2022/04/13 11:52:40;;;;;;;7.50;6.70;;;;;;;15.71;35.97;100485.88;215357;1277;140510;-73
2022/04/13 11:58:09;;;;;;;7.50;5.90;;;;;;;15.68;35.53;100487.94;215578;1277;140610;-73
2022/04/13 12:03:16;;;;;;;8.70;6.80;;;;;;;15.65;35.52;100487.05;215374;1277;141119;-71
2022/04/13 12:08:30;;;;;;;8.30;7.50;;;;;;;15.58;35.42;100480.56;215603;1276;141067;-75
2022/04/13 12:13:59;;;;;;;10.20;5.80;;;;;;;15.45;35.39;100472.08;215557;1277;140448;-73
2022/04/13 12:19:07;;;;;;;8.70;7.00;;;;;;;15.56;35.76;100467.56;214715;1277;140308;-75
2022/04/13 12:24:11;;;;;;;9.80;7.10;;;;;;;15.51;35.41;100467.71;213655;1279;141255;-74
2022/04/13 12:29:22;;;;;;;12.40;7.50;;;;;;;15.30;35.53;100469.45;213284;1277;140667;-71
2022/04/13 12:34:26;;;;;;;8.90;7.00;;;;;;;15.29;36.21;100461.02;213724;1279;140474;-74
2022/04/13 12:39:39;;;;;;;7.80;6.80;;;;;;;15.47;36.40;100465.66;213983;1277;142495;-70
2022/04/13 12:44:51;;;;;;;17.80;10.80;;;;;;;15.72;36.35;100459.28;212962;1277;140521;-67
2022/04/13 12:50:01;;;;;;;29.10;17.60;;;;;;;15.91;36.21;100451.59;213369;1277;140253;-70
2022/04/13 12:55:05;;;;;;;10.20;7.60;;;;;;;16.03;36.29;100441.98;212819;1277;140349;-68
2022/04/13 13:00:08;;;;;;;8.80;7.90;;;;;;;15.89;36.11;100438.40;213416;1278;139598;-70
2022/04/13 13:05:10;;;;;;;9.40;7.60;;;;;;;15.71;36.66;100439.91;213191;1277;139819;-71
2022/04/13 13:10:14;;;;;;;6.90;6.10;;;;;;;15.58;36.39;100433.40;213837;1277;139474;-75
2022/04/13 13:15:20;;;;;;;10.20;6.60;;;;;;;15.49;36.41;100434.69;214183;1277;140060;-69
2022/04/13 13:20:25;;;;;;;9.20;7.10;;;;;;;15.36;36.28;100433.54;213005;1277;141604;-69
2022/04/13 13:25:40;;;;;;;7.40;5.60;;;;;;;15.30;36.40;100429.48;213851;1277;140066;-73
2022/04/13 13:30:50;;;;;;;12.20;7.00;;;;;;;15.22;36.16;100426.64;213601;1277;141730;-71
2022/04/13 13:35:54;;;;;;;7.30;6.20;;;;;;;15.13;36.21;100423.73;214137;1277;140233;-67
2022/04/13 13:41:09;;;;;;;11.90;7.30;;;;;;;15.13;36.54;100426.09;214246;1277;141944;-68
2022/04/13 13:46:21;;;;;;;13.40;10.30;;;;;;;15.18;36.35;100425.63;213056;1277;139744;-68
2022/04/13 13:51:25;;;;;;;6.80;5.80;;;;;;;15.36;36.69;100428.96;214302;1277;140156;-66
2022/04/13 13:56:27;;;;;;;6.80;5.30;;;;;;;15.22;35.53;100416.55;214515;1277;141556;-64
2022/04/13 14:01:29;;;;;;;6.30;5.40;;;;;;;15.07;35.55;100408.72;215556;1277;139975;-68
2022/04/13 14:06:32;;;;;;;9.70;5.10;;;;;;;15.06;35.69;100404.67;214494;1279;139647;-73
2022/04/13 14:11:35;;;;;;;6.30;4.60;;;;;;;15.07;35.87;100402.70;215188;1276;141370;-66
2022/04/13 14:16:37;;;;;;;5.60;4.90;;;;;;;15.12;35.50;100398.75;215057;1276;140126;-75
2022/04/13 14:21:40;;;;;;;7.40;5.30;;;;;;;15.24;35.60;100401.11;215458;1277;140359;-74
2022/04/13 14:26:43;;;;;;;8.10;5.80;;;;;;;15.33;35.30;100397.51;213585;1276;140062;-75
2022/04/13 14:31:47;;;;;;;5.60;5.00;;;;;;;15.50;35.63;100398.91;213374;1277;140133;-76
2022/04/13 14:36:51;;;;;;;10.20;6.40;;;;;;;15.67;35.58;100393.05;213555;1277;141451;-76
2022/04/13 14:41:54;;;;;;;9.40;5.70;;;;;;;15.59;34.82;100394.25;213448;1276;209756;-75
2022/04/13 14:46:56;;;;;;;6.80;5.40;;;;;;;15.37;34.93;100394.98;213548;1276;211533;-64
2022/04/13 14:51:59;;;;;;;7.50;5.10;;;;;;;15.27;34.99;100395.23;213836;1279;140693;-74
2022/04/13 14:57:03;;;;;;;10.40;6.10;;;;;;;15.25;35.14;100390.45;213681;1277;141347;-71
2022/04/13 15:02:07;;;;;;;6.20;5.60;;;;;;;15.39;35.43;100388.89;213527;1276;140318;-69
2022/04/13 15:07:10;;;;;;;5.80;5.00;;;;;;;15.62;34.83;100384.83;214080;1277;141428;-72
2022/04/13 15:12:13;;;;;;;14.30;6.00;;;;;;;15.76;35.30;100379.66;213542;1279;140371;-70
2022/04/13 15:17:17;;;;;;;6.90;6.20;;;;;;;15.92;35.21;100372.23;213413;1279;139796;-72
2022/04/13 15:22:20;;;;;;;9.70;6.10;;;;;;;16.02;34.97;100371.84;213603;1277;159145;-73
2022/04/13 15:27:23;;;;;;;14.10;6.50;;;;;;;16.01;34.23;100365.05;213988;1277;139836;-69
2022/04/13 15:32:25;;;;;;;7.30;6.50;;;;;;;15.89;34.22;100370.10;214728;1276;139786;-71
2022/04/13 15:37:29;;;;;;;9.90;6.20;;;;;;;15.71;34.15;100370.09;214521;1277;139583;-72
2022/04/13 15:42:32;;;;;;;9.40;6.60;;;;;;;15.57;34.34;100365.95;214394;1277;140314;-71
2022/04/13 15:47:35;;;;;;;11.30;6.20;;;;;;;15.43;34.81;100366.25;214185;1277;142018;-71
2022/04/13 15:52:38;;;;;;;6.10;5.00;;;;;;;15.26;34.91;100365.09;215304;1277;139841;-71
2022/04/13 15:57:42;;;;;;;8.00;6.50;;;;;;;15.03;34.85;100367.05;214549;1277;139856;-69
2022/04/13 16:03:06;;;;;;;10.20;5.80;;;;;;;14.84;35.08;100361.75;215529;1277;139496;-72
2022/04/13 16:08:10;;;;;;;8.60;7.50;;;;;;;14.71;35.14;100359.56;215534;1276;141024;-71
2022/04/13 16:13:13;;;;;;;11.10;5.50;;;;;;;14.56;35.60;100364.71;215785;1277;139584;-76
2022/04/13 16:18:18;;;;;;;7.90;5.70;;;;;;;14.47;35.58;100367.30;215683;1277;140755;-74
2022/04/13 16:23:22;;;;;;;12.40;7.70;;;;;;;14.35;35.96;100367.52;215757;1277;139815;-76
2022/04/13 16:28:26;;;;;;;10.60;6.90;;;;;;;14.32;36.32;100368.83;213197;1279;139701;-75
2022/04/13 16:33:29;;;;;;;7.70;5.70;;;;;;;14.29;36.18;100372.75;212912;1277;140653;-74
2022/04/13 16:38:39;;;;;;;8.70;5.90;;;;;;;14.20;36.36;100371.34;213513;1277;141943;-76
2022/04/13 16:43:43;;;;;;;6.80;5.70;;;;;;;14.09;36.61;100369.67;213860;1277;140691;-70
2022/04/13 16:48:47;;;;;;;11.70;7.70;;;;;;;13.98;36.57;100367.66;214281;1276;141690;-70
2022/04/13 16:53:50;;;;;;;9.70;6.80;;;;;;;13.88;36.77;100364.80;213713;1277;141663;-68
2022/04/13 16:58:52;;;;;;;13.00;6.20;;;;;;;13.78;37.16;100361.84;213774;1277;231420;-67
2022/04/13 17:03:55;;;;;;;9.20;5.90;;;;;;;13.65;37.33;100358.96;212840;1277;141998;-68
2022/04/13 17:08:58;;;;;;;5.20;4.80;;;;;;;13.49;37.81;100355.39;213117;1276;141618;-67
2022/04/13 17:14:00;;;;;;;8.10;5.70;;;;;;;13.30;37.86;100352.70;213077;1279;142488;-70
2022/04/13 17:19:02;;;;;;;13.30;5.80;;;;;;;13.11;37.99;100356.72;213277;1276;140795;-69
2022/04/13 17:24:06;;;;;;;10.80;7.60;;;;;;;12.94;38.37;100358.69;212888;1277;142212;-69
2022/04/13 17:29:12;;;;;;;10.40;6.30;;;;;;;12.71;38.67;100353.36;213388;1277;140850;-69
2022/04/13 17:34:15;;;;;;;11.30;7.70;;;;;;;12.50;39.05;100350.30;213403;1277;140897;-65
2022/04/13 17:39:17;;;;;;;9.90;7.30;;;;;;;12.28;39.46;100350.59;212912;1277;141199;-71
2022/04/13 17:44:20;;;;;;;14.90;7.60;;;;;;;12.03;39.81;100354.04;212900;1278;142049;-72
2022/04/13 17:49:23;;;;;;;17.20;10.50;;;;;;;11.78;40.69;100353.00;213736;1277;141887;-74
2022/04/13 17:54:27;;;;;;;16.20;8.90;;;;;;;11.53;41.29;100361.79;214143;1277;141049;-75
2022/04/13 17:59:31;;;;;;;19.60;10.20;;;;;;;11.26;41.85;100365.52;214686;1277;141255;-68
2022/04/13 18:04:34;;;;;;;28.60;17.80;;;;;;;11.00;42.32;100374.28;215000;1277;140616;-71
2022/04/13 18:09:38;;;;;;;26.30;12.00;;;;;;;10.76;42.78;100377.16;215201;1277;231515;-70
2022/04/13 18:14:41;;;;;;;17.80;9.50;;;;;;;10.54;43.46;100381.14;215299;1277;141482;-69
2022/04/13 18:19:47;;;;;;;10.60;7.30;;;;;;;10.34;44.47;100388.44;214318;1278;140157;-70
2022/04/13 18:24:53;;;;;;;7.90;6.30;;;;;;;10.13;44.94;100385.70;215310;1277;139810;-76
2022/04/13 18:29:59;;;;;;;19.90;7.90;;;;;;;9.90;45.68;100382.61;213636;1277;141681;-70
2022/04/13 18:35:07;;;;;;;20.80;8.60;;;;;;;9.67;46.08;100388.86;214576;1276;139964;-71
2022/04/13 18:40:11;;;;;;;;;;;;;;;9.48;46.92;100385.09;212839;1276;140253;-74
2022/04/13 18:45:14;;;;;;;21.20;11.40;;;;;;;9.23;47.15;100387.85;214064;1276;126247;-70
2022/04/13 18:50:17;;;;;;;21.10;11.10;;;;;;;9.00;47.69;100389.35;213202;1276;139835;-75
2022/04/13 18:55:20;;;;;;;25.60;14.30;;;;;;;8.83;48.10;100392.34;214838;1278;140572;-71
2022/04/13 19:00:26;;;;;;;20.10;10.70;;;;;;;8.75;48.70;100392.96;213232;1277;140382;-69
2022/04/13 19:05:33;;;;;;;17.30;10.70;;;;;;;8.64;49.10;100397.91;213487;1278;141473;-67
2022/04/13 19:10:36;;;;;;;31.30;14.60;;;;;;;8.47;49.42;100393.80;213114;1278;205562;-74
2022/04/13 19:15:39;;;;;;;24.90;15.80;;;;;;;8.30;49.67;100390.70;214196;1278;139858;-73
2022/04/13 19:20:42;;;;;;;24.40;15.00;;;;;;;8.15;49.77;100393.67;212989;1279;139660;-72
2022/04/13 19:25:44;;;;;;;25.70;16.00;;;;;;;7.95;50.30;100389.16;213153;1278;140530;-72
2022/04/13 19:30:52;;;;;;;;;;;;;;;7.77;50.53;100387.19;213151;1276;140191;-72
2022/04/13 19:35:54;;;;;;;39.50;18.90;;;;;;;7.56;50.80;100386.32;214118;1277;125483;-75
2022/04/13 19:40:58;;;;;;;59.20;27.00;;;;;;;7.40;51.32;100382.61;214730;1276;140895;-74
2022/04/13 19:46:02;;;;;;;72.20;34.60;;;;;;;7.30;51.76;100378.83;213007;1279;141266;-73
2022/04/13 19:51:05;;;;;;;69.90;33.20;;;;;;;7.22;51.94;100382.96;213830;1278;142356;-72
2022/04/13 19:56:09;;;;;;;86.30;39.40;;;;;;;7.17;52.14;100386.64;213952;1277;139864;-75
2022/04/13 20:01:13;;;;;;;56.40;33.30;;;;;;;7.08;52.11;100391.84;214756;1278;141418;-68
2022/04/13 20:06:17;;;;;;;49.50;25.50;;;;;;;7.00;52.55;100397.52;214812;1278;140983;-73
2022/04/13 20:11:20;;;;;;;48.70;25.70;;;;;;;6.91;53.04;100396.45;215955;1278;140594;-76
2022/04/13 20:16:24;;;;;;;45.10;26.10;;;;;;;6.81;53.29;100396.05;213434;1278;141178;-65
2022/04/13 20:21:28;;;;;;;48.10;23.00;;;;;;;6.65;53.79;100396.33;214191;1276;140730;-75
2022/04/13 20:26:32;;;;;;;51.40;26.00;;;;;;;6.48;53.98;100397.57;215666;1277;140687;-73
2022/04/13 20:31:36;;;;;;;47.80;25.00;;;;;;;6.31;54.40;100389.29;214887;1278;141190;-71
2022/04/13 20:36:40;;;;;;;71.00;36.80;;;;;;;6.18;54.75;100385.46;213880;1277;141054;-64
2022/04/13 20:41:45;;;;;;;83.00;48.00;;;;;;;6.06;55.25;100380.00;214057;1278;142027;-71
2022/04/13 20:46:47;;;;;;;72.10;42.20;;;;;;;5.96;55.74;100379.33;213197;1279;140784;-74
2022/04/13 20:51:50;;;;;;;34.60;16.90;;;;;;;5.89;55.82;100374.92;213582;1277;140554;-70
2022/04/13 20:56:54;;;;;;;30.80;15.90;;;;;;;5.87;55.86;100378.05;214198;1277;140486;-71
2022/04/13 21:01:57;;;;;;;22.30;10.50;;;;;;;5.90;55.63;100373.35;214399;1277;141041;-76
2022/04/13 21:07:00;;;;;;;12.30;8.60;;;;;;;5.96;55.58;100369.76;214319;1277;140727;-73
2022/04/13 21:12:03;;;;;;;12.00;7.50;;;;;;;6.11;55.57;100362.08;213920;1278;141154;-71
2022/04/13 21:17:05;;;;;;;15.30;10.50;;;;;;;6.24;55.47;100359.45;214146;1277;139856;-77
2022/04/13 21:22:10;;;;;;;16.20;10.50;;;;;;;6.36;55.53;100356.27;213533;1279;141256;-72
2022/04/13 21:27:13;;;;;;;16.60;11.60;;;;;;;6.44;55.32;100353.02;213575;1277;142430;-70
2022/04/13 21:32:19;;;;;;;17.50;11.30;;;;;;;6.50;55.03;100351.29;214330;1277;140051;-76
2022/04/13 21:37:22;;;;;;;23.90;11.10;;;;;;;6.53;55.09;100350.14;214497;1278;140686;-73
2022/04/13 21:42:25;;;;;;;19.20;11.70;;;;;;;6.55;54.84;100350.60;213694;1277;139646;-70
2022/04/13 21:47:27;;;;;;;16.40;9.60;;;;;;;6.56;55.13;100351.84;213112;1277;141426;-74
2022/04/13 21:52:30;;;;;;;17.00;10.40;;;;;;;6.58;55.08;100352.05;214125;1278;139795;-74
2022/04/13 21:57:39;;;;;;;21.10;11.40;;;;;;;6.58;55.18;100345.29;213748;1278;140644;-69
2022/04/13 22:02:44;;;;;;;20.50;13.20;;;;;;;6.55;54.79;100346.69;213333;1279;141808;-68
2022/04/13 22:07:52;;;;;;;26.80;12.80;;;;;;;6.54;55.04;100345.09;213757;1278;222115;-69
2022/04/13 22:12:57;;;;;;;19.80;12.20;;;;;;;6.52;55.11;100346.25;215286;1277;140184;-71
2022/04/13 22:18:00;;;;;;;25.50;14.30;;;;;;;6.48;54.93;100348.10;213450;1278;140456;-73
2022/04/13 22:23:04;;;;;;;19.90;14.50;;;;;;;6.47;54.95;100345.45;215491;1278;140124;-73
2022/04/13 22:28:08;;;;;;;19.60;12.70;;;;;;;6.49;55.14;100348.92;215665;1277;139798;-70
2022/04/13 22:33:11;;;;;;;17.40;10.70;;;;;;;6.50;55.28;100348.23;214572;1277;140112;-72
2022/04/13 22:38:14;;;;;;;19.40;11.70;;;;;;;6.51;54.98;100350.27;215287;1278;140201;-67
2022/04/13 22:43:17;;;;;;;25.30;13.80;;;;;;;6.50;54.90;100348.57;215662;1278;140079;-67
2022/04/13 22:48:20;;;;;;;23.50;13.40;;;;;;;6.47;54.85;100343.89;213401;1277;1024618;-67
2022/04/13 22:53:24;;;;;;;25.00;13.60;;;;;;;6.40;54.90;100344.14;214418;1277;140352;-67